sensor_id;sensor_type;location;lat;lon;timestamp;P1;durP1;ratioP1;P2;durP2;ratioP2
68910;SDS011;55953;51.650;-0.522;2022-09-09T00:02:24;19.60;;;6.00;;
68910;SDS011;55953;51.650;-0.522;2022-09-09T00:05:02;20.10;;;6.30;;
68910;SDS011;55953;51.650;-0.522;2022-09-09T00:07:55;24.30;;;5.70;;
68910;SDS011;55953;51.650;-0.522;2022-09-09T00:13:16;19.80;;;5.80;;
68910;SDS011;55953;51.650;-0.522;2022-09-09T00:22:07;23.60;;;5.60;;
68910;SDS011;55953;51.650;-0.522;2022-09-09T00:24:45;29.00;;;6.00;;
68910;SDS011;55953;51.650;-0.522;2022-09-09T00:27:48;25.20;;;6.50;;
68910;SDS011;55953;51.650;-0.522;2022-09-09T00:30:23;21.10;;;5.50;;
68910;SDS011;55953;51.650;-0.522;2022-09-09T00:32:54;22.80;;;6.00;;
68910;SDS011;55953;51.650;-0.522;2022-09-09T00:35:29;23.00;;;6.30;;
68910;SDS011;55953;51.650;-0.522;2022-09-09T00:38:12;17.70;;;5.60;;
68910;SDS011;55953;51.650;-0.522;2022-09-09T00:40:51;21.50;;;6.10;;
68910;SDS011;55953;51.650;-0.522;2022-09-09T00:43:41;29.40;;;7.70;;
68910;SDS011;55953;51.650;-0.522;2022-09-09T00:46:34;24.40;;;6.60;;
68910;SDS011;55953;51.650;-0.522;2022-09-09T00:52:25;25.00;;;6.30;;
68910;SDS011;55953;51.650;-0.522;2022-09-09T00:57:48;28.30;;;6.70;;
68910;SDS011;55953;51.650;-0.522;2022-09-09T01:06:11;26.40;;;6.00;;
68910;SDS011;55953;51.650;-0.522;2022-09-09T01:26:19;24.20;;;6.10;;
68910;SDS011;55953;51.650;-0.522;2022-09-09T01:28:52;24.50;;;6.30;;
68910;SDS011;55953;51.650;-0.522;2022-09-09T01:31:36;28.00;;;7.00;;
68910;SDS011;55953;51.650;-0.522;2022-09-09T01:34:14;32.80;;;6.90;;
68910;SDS011;55953;51.650;-0.522;2022-09-09T01:36:59;25.30;;;6.50;;
68910;SDS011;55953;51.650;-0.522;2022-09-09T01:39:33;26.30;;;5.80;;
68910;SDS011;55953;51.650;-0.522;2022-09-09T01:42:09;22.60;;;6.70;;
68910;SDS011;55953;51.650;-0.522;2022-09-09T01:44:39;33.30;;;6.90;;
68910;SDS011;55953;51.650;-0.522;2022-09-09T01:47:08;27.60;;;6.30;;
68910;SDS011;55953;51.650;-0.522;2022-09-09T01:49:47;21.00;;;6.20;;
68910;SDS011;55953;51.650;-0.522;2022-09-09T01:52:21;20.20;;;6.40;;
68910;SDS011;55953;51.650;-0.522;2022-09-09T01:54:49;24.60;;;6.10;;
68910;SDS011;55953;51.650;-0.522;2022-09-09T02:00:19;29.80;;;6.60;;
68910;SDS011;55953;51.650;-0.522;2022-09-09T02:08:50;26.50;;;5.90;;
68910;SDS011;55953;51.650;-0.522;2022-09-09T02:11:24;23.70;;;6.10;;
68910;SDS011;55953;51.650;-0.522;2022-09-09T02:14:03;21.70;;;5.60;;
68910;SDS011;55953;51.650;-0.522;2022-09-09T02:16:41;24.00;;;6.60;;
68910;SDS011;55953;51.650;-0.522;2022-09-09T02:19:25;20.30;;;5.60;;
68910;SDS011;55953;51.650;-0.522;2022-09-09T02:22:04;28.10;;;5.20;;
68910;SDS011;55953;51.650;-0.522;2022-09-09T02:24:34;20.10;;;4.30;;
68910;SDS011;55953;51.650;-0.522;2022-09-09T02:27:18;21.30;;;4.40;;
68910;SDS011;55953;51.650;-0.522;2022-09-09T02:29:48;19.20;;;4.20;;
68910;SDS011;55953;51.650;-0.522;2022-09-09T02:32:24;23.50;;;4.20;;
68910;SDS011;55953;51.650;-0.522;2022-09-09T02:34:59;17.00;;;3.70;;
68910;SDS011;55953;51.650;-0.522;2022-09-09T02:37:41;19.90;;;3.70;;
68910;SDS011;55953;51.650;-0.522;2022-09-09T02:40:14;16.50;;;3.80;;
68910;SDS011;55953;51.650;-0.522;2022-09-09T02:42:47;19.20;;;4.50;;
68910;SDS011;55953;51.650;-0.522;2022-09-09T02:45:25;17.30;;;3.80;;
68910;SDS011;55953;51.650;-0.522;2022-09-09T02:48:21;16.70;;;4.30;;
68910;SDS011;55953;51.650;-0.522;2022-09-09T02:51:19;20.80;;;4.40;;
68910;SDS011;55953;51.650;-0.522;2022-09-09T02:54:29;16.40;;;5.20;;
68910;SDS011;55953;51.650;-0.522;2022-09-09T02:57:13;23.10;;;4.90;;
68910;SDS011;55953;51.650;-0.522;2022-09-09T02:59:51;14.50;;;4.00;;
68910;SDS011;55953;51.650;-0.522;2022-09-09T03:02:22;19.60;;;4.00;;
68910;SDS011;55953;51.650;-0.522;2022-09-09T03:04:53;15.00;;;4.20;;
68910;SDS011;55953;51.650;-0.522;2022-09-09T03:07:22;23.10;;;5.30;;
68910;SDS011;55953;51.650;-0.522;2022-09-09T03:09:49;12.40;;;4.30;;
68910;SDS011;55953;51.650;-0.522;2022-09-09T03:12:17;19.00;;;3.80;;
68910;SDS011;55953;51.650;-0.522;2022-09-09T03:14:45;15.80;;;3.80;;
68910;SDS011;55953;51.650;-0.522;2022-09-09T03:17:14;13.50;;;4.80;;
68910;SDS011;55953;51.650;-0.522;2022-09-09T03:19:47;16.90;;;3.00;;
68910;SDS011;55953;51.650;-0.522;2022-09-09T03:22:17;13.60;;;3.40;;
68910;SDS011;55953;51.650;-0.522;2022-09-09T03:24:45;17.20;;;3.70;;
68910;SDS011;55953;51.650;-0.522;2022-09-09T03:27:14;15.70;;;3.60;;
68910;SDS011;55953;51.650;-0.522;2022-09-09T03:29:42;12.70;;;4.00;;
68910;SDS011;55953;51.650;-0.522;2022-09-09T03:32:13;12.10;;;3.90;;
68910;SDS011;55953;51.650;-0.522;2022-09-09T03:34:40;17.80;;;4.60;;
68910;SDS011;55953;51.650;-0.522;2022-09-09T03:37:10;12.70;;;4.10;;
68910;SDS011;55953;51.650;-0.522;2022-09-09T03:39:39;15.60;;;4.90;;
68910;SDS011;55953;51.650;-0.522;2022-09-09T03:42:07;17.50;;;4.70;;
68910;SDS011;55953;51.650;-0.522;2022-09-09T03:44:35;16.60;;;4.70;;
68910;SDS011;55953;51.650;-0.522;2022-09-09T03:47:03;21.80;;;5.50;;
68910;SDS011;55953;51.650;-0.522;2022-09-09T03:49:31;19.90;;;6.00;;
68910;SDS011;55953;51.650;-0.522;2022-09-09T03:52:00;19.50;;;6.20;;
68910;SDS011;55953;51.650;-0.522;2022-09-09T03:54:29;24.00;;;6.70;;
68910;SDS011;55953;51.650;-0.522;2022-09-09T03:56:56;28.70;;;6.50;;
68910;SDS011;55953;51.650;-0.522;2022-09-09T03:59:25;24.00;;;6.70;;
68910;SDS011;55953;51.650;-0.522;2022-09-09T04:01:54;19.90;;;6.00;;
68910;SDS011;55953;51.650;-0.522;2022-09-09T04:04:22;30.40;;;7.80;;
68910;SDS011;55953;51.650;-0.522;2022-09-09T04:06:50;23.70;;;7.10;;
68910;SDS011;55953;51.650;-0.522;2022-09-09T04:09:18;25.90;;;8.10;;
68910;SDS011;55953;51.650;-0.522;2022-09-09T04:11:47;29.30;;;7.90;;
68910;SDS011;55953;51.650;-0.522;2022-09-09T04:14:16;30.20;;;7.70;;
68910;SDS011;55953;51.650;-0.522;2022-09-09T04:16:44;23.30;;;8.20;;
68910;SDS011;55953;51.650;-0.522;2022-09-09T04:19:13;27.50;;;7.60;;
68910;SDS011;55953;51.650;-0.522;2022-09-09T04:21:42;26.60;;;7.30;;
68910;SDS011;55953;51.650;-0.522;2022-09-09T04:24:10;24.80;;;7.10;;
68910;SDS011;55953;51.650;-0.522;2022-09-09T04:26:37;25.80;;;8.60;;
68910;SDS011;55953;51.650;-0.522;2022-09-09T04:29:05;34.20;;;7.70;;
68910;SDS011;55953;51.650;-0.522;2022-09-09T04:31:34;29.40;;;8.40;;
68910;SDS011;55953;51.650;-0.522;2022-09-09T04:34:02;28.20;;;8.90;;
68910;SDS011;55953;51.650;-0.522;2022-09-09T04:36:33;31.30;;;8.20;;
68910;SDS011;55953;51.650;-0.522;2022-09-09T04:39:03;25.40;;;7.40;;
68910;SDS011;55953;51.650;-0.522;2022-09-09T04:41:30;29.30;;;7.90;;
68910;SDS011;55953;51.650;-0.522;2022-09-09T04:43:59;21.70;;;7.80;;
68910;SDS011;55953;51.650;-0.522;2022-09-09T04:46:28;26.60;;;7.80;;
68910;SDS011;55953;51.650;-0.522;2022-09-09T04:48:57;23.10;;;8.40;;
68910;SDS011;55953;51.650;-0.522;2022-09-09T04:51:27;25.20;;;8.40;;
68910;SDS011;55953;51.650;-0.522;2022-09-09T04:53:55;24.40;;;8.40;;
68910;SDS011;55953;51.650;-0.522;2022-09-09T04:56:23;23.10;;;8.10;;
68910;SDS011;55953;51.650;-0.522;2022-09-09T04:58:56;28.90;;;8.60;;
68910;SDS011;55953;51.650;-0.522;2022-09-09T05:01:31;22.40;;;8.60;;
68910;SDS011;55953;51.650;-0.522;2022-09-09T05:04:02;27.70;;;9.50;;
68910;SDS011;55953;51.650;-0.522;2022-09-09T05:06:32;31.60;;;9.70;;
68910;SDS011;55953;51.650;-0.522;2022-09-09T05:09:00;30.20;;;9.50;;
68910;SDS011;55953;51.650;-0.522;2022-09-09T05:11:31;30.90;;;11.40;;
68910;SDS011;55953;51.650;-0.522;2022-09-09T05:14:20;32.30;;;10.00;;
68910;SDS011;55953;51.650;-0.522;2022-09-09T05:16:48;35.30;;;12.40;;
68910;SDS011;55953;51.650;-0.522;2022-09-09T05:19:17;27.30;;;10.20;;
68910;SDS011;55953;51.650;-0.522;2022-09-09T05:21:48;31.20;;;10.50;;
68910;SDS011;55953;51.650;-0.522;2022-09-09T05:26:47;34.80;;;10.40;;
68910;SDS011;55953;51.650;-0.522;2022-09-09T05:29:16;34.30;;;11.10;;
68910;SDS011;55953;51.650;-0.522;2022-09-09T05:31:46;41.40;;;12.00;;
68910;SDS011;55953;51.650;-0.522;2022-09-09T05:34:16;28.20;;;10.10;;
68910;SDS011;55953;51.650;-0.522;2022-09-09T05:36:44;35.20;;;10.50;;
68910;SDS011;55953;51.650;-0.522;2022-09-09T05:39:12;35.00;;;11.90;;
68910;SDS011;55953;51.650;-0.522;2022-09-09T05:41:40;32.90;;;11.40;;
68910;SDS011;55953;51.650;-0.522;2022-09-09T05:44:08;37.50;;;11.00;;
68910;SDS011;55953;51.650;-0.522;2022-09-09T05:46:38;32.40;;;10.90;;
68910;SDS011;55953;51.650;-0.522;2022-09-09T05:49:06;31.70;;;10.30;;
68910;SDS011;55953;51.650;-0.522;2022-09-09T05:51:35;25.40;;;11.50;;
68910;SDS011;55953;51.650;-0.522;2022-09-09T05:56:37;29.40;;;10.20;;
68910;SDS011;55953;51.650;-0.522;2022-09-09T05:59:06;33.50;;;11.30;;
68910;SDS011;55953;51.650;-0.522;2022-09-09T06:01:36;33.00;;;11.00;;
68910;SDS011;55953;51.650;-0.522;2022-09-09T06:04:09;31.60;;;10.80;;
68910;SDS011;55953;51.650;-0.522;2022-09-09T06:06:39;31.90;;;10.70;;
68910;SDS011;55953;51.650;-0.522;2022-09-09T06:09:11;32.00;;;10.60;;
68910;SDS011;55953;51.650;-0.522;2022-09-09T06:11:42;27.30;;;10.20;;
68910;SDS011;55953;51.650;-0.522;2022-09-09T06:14:10;25.40;;;10.20;;
68910;SDS011;55953;51.650;-0.522;2022-09-09T06:16:39;28.80;;;10.60;;
68910;SDS011;55953;51.650;-0.522;2022-09-09T06:19:12;30.80;;;9.80;;
68910;SDS011;55953;51.650;-0.522;2022-09-09T06:21:40;35.80;;;10.80;;
68910;SDS011;55953;51.650;-0.522;2022-09-09T06:24:09;29.10;;;9.80;;
68910;SDS011;55953;51.650;-0.522;2022-09-09T06:26:38;26.60;;;9.70;;
68910;SDS011;55953;51.650;-0.522;2022-09-09T06:29:12;25.40;;;9.60;;
68910;SDS011;55953;51.650;-0.522;2022-09-09T06:31:41;35.30;;;9.90;;
68910;SDS011;55953;51.650;-0.522;2022-09-09T06:34:18;24.20;;;8.80;;
68910;SDS011;55953;51.650;-0.522;2022-09-09T06:36:47;24.60;;;9.80;;
68910;SDS011;55953;51.650;-0.522;2022-09-09T06:39:16;22.70;;;9.20;;
68910;SDS011;55953;51.650;-0.522;2022-09-09T06:41:44;25.40;;;9.30;;
68910;SDS011;55953;51.650;-0.522;2022-09-09T06:44:35;23.80;;;8.70;;
68910;SDS011;55953;51.650;-0.522;2022-09-09T06:47:04;22.10;;;7.90;;
68910;SDS011;55953;51.650;-0.522;2022-09-09T06:49:33;22.20;;;8.40;;
68910;SDS011;55953;51.650;-0.522;2022-09-09T06:52:03;27.20;;;9.20;;
68910;SDS011;55953;51.650;-0.522;2022-09-09T06:54:31;25.20;;;9.10;;
68910;SDS011;55953;51.650;-0.522;2022-09-09T06:56:59;23.40;;;8.90;;
68910;SDS011;55953;51.650;-0.522;2022-09-09T06:59:48;26.40;;;9.50;;
68910;SDS011;55953;51.650;-0.522;2022-09-09T07:02:16;30.10;;;9.30;;
68910;SDS011;55953;51.650;-0.522;2022-09-09T07:04:44;24.00;;;8.90;;
68910;SDS011;55953;51.650;-0.522;2022-09-09T07:07:12;29.40;;;9.10;;
68910;SDS011;55953;51.650;-0.522;2022-09-09T07:09:41;28.60;;;10.00;;
68910;SDS011;55953;51.650;-0.522;2022-09-09T07:12:09;22.10;;;8.50;;
68910;SDS011;55953;51.650;-0.522;2022-09-09T07:14:38;24.30;;;8.80;;
68910;SDS011;55953;51.650;-0.522;2022-09-09T07:17:07;28.10;;;9.40;;
68910;SDS011;55953;51.650;-0.522;2022-09-09T07:19:37;27.30;;;9.50;;
68910;SDS011;55953;51.650;-0.522;2022-09-09T07:22:05;29.90;;;11.60;;
68910;SDS011;55953;51.650;-0.522;2022-09-09T07:24:33;29.20;;;10.50;;
68910;SDS011;55953;51.650;-0.522;2022-09-09T07:27:01;31.00;;;10.80;;
68910;SDS011;55953;51.650;-0.522;2022-09-09T07:29:31;29.90;;;10.80;;
68910;SDS011;55953;51.650;-0.522;2022-09-09T07:31:59;31.30;;;12.10;;
68910;SDS011;55953;51.650;-0.522;2022-09-09T07:34:32;33.00;;;11.50;;
68910;SDS011;55953;51.650;-0.522;2022-09-09T07:36:59;30.30;;;12.30;;
68910;SDS011;55953;51.650;-0.522;2022-09-09T07:39:28;30.00;;;10.70;;
68910;SDS011;55953;51.650;-0.522;2022-09-09T07:41:56;34.10;;;10.70;;
68910;SDS011;55953;51.650;-0.522;2022-09-09T07:44:26;44.30;;;12.70;;
68910;SDS011;55953;51.650;-0.522;2022-09-09T07:47:02;32.90;;;10.80;;
68910;SDS011;55953;51.650;-0.522;2022-09-09T07:49:35;37.90;;;12.80;;
68910;SDS011;55953;51.650;-0.522;2022-09-09T07:52:04;42.60;;;12.50;;
68910;SDS011;55953;51.650;-0.522;2022-09-09T07:54:33;39.90;;;13.60;;
68910;SDS011;55953;51.650;-0.522;2022-09-09T07:57:04;43.80;;;13.30;;
68910;SDS011;55953;51.650;-0.522;2022-09-09T07:59:33;37.00;;;12.90;;
68910;SDS011;55953;51.650;-0.522;2022-09-09T08:02:01;37.80;;;11.60;;
68910;SDS011;55953;51.650;-0.522;2022-09-09T08:04:30;44.20;;;14.00;;
68910;SDS011;55953;51.650;-0.522;2022-09-09T08:06:59;39.10;;;14.30;;
68910;SDS011;55953;51.650;-0.522;2022-09-09T08:09:33;40.60;;;12.50;;
68910;SDS011;55953;51.650;-0.522;2022-09-09T08:12:08;46.20;;;13.90;;
68910;SDS011;55953;51.650;-0.522;2022-09-09T08:14:36;45.30;;;13.70;;
68910;SDS011;55953;51.650;-0.522;2022-09-09T08:17:04;38.80;;;11.40;;
68910;SDS011;55953;51.650;-0.522;2022-09-09T08:19:32;45.30;;;13.90;;
68910;SDS011;55953;51.650;-0.522;2022-09-09T08:22:06;40.80;;;13.40;;
68910;SDS011;55953;51.650;-0.522;2022-09-09T08:24:35;45.50;;;13.80;;
68910;SDS011;55953;51.650;-0.522;2022-09-09T08:27:03;37.80;;;13.10;;
68910;SDS011;55953;51.650;-0.522;2022-09-09T08:29:31;42.90;;;14.00;;
68910;SDS011;55953;51.650;-0.522;2022-09-09T08:31:59;48.00;;;15.10;;
68910;SDS011;55953;51.650;-0.522;2022-09-09T08:34:28;48.80;;;14.00;;
68910;SDS011;55953;51.650;-0.522;2022-09-09T08:36:59;46.00;;;15.00;;
68910;SDS011;55953;51.650;-0.522;2022-09-09T08:39:31;51.30;;;15.20;;
68910;SDS011;55953;51.650;-0.522;2022-09-09T08:48:04;50.00;;;15.50;;
68910;SDS011;55953;51.650;-0.522;2022-09-09T08:51:00;53.70;;;15.60;;
68910;SDS011;55953;51.650;-0.522;2022-09-09T08:53:51;47.20;;;16.70;;
68910;SDS011;55953;51.650;-0.522;2022-09-09T08:56:27;55.30;;;15.80;;
68910;SDS011;55953;51.650;-0.522;2022-09-09T08:59:00;53.20;;;16.40;;
68910;SDS011;55953;51.650;-0.522;2022-09-09T09:04:58;45.70;;;15.30;;
68910;SDS011;55953;51.650;-0.522;2022-09-09T09:10:39;55.80;;;16.00;;
68910;SDS011;55953;51.650;-0.522;2022-09-09T09:16:31;51.40;;;16.90;;
68910;SDS011;55953;51.650;-0.522;2022-09-09T09:19:08;56.60;;;16.60;;
68910;SDS011;55953;51.650;-0.522;2022-09-09T09:21:52;56.80;;;15.90;;
68910;SDS011;55953;51.650;-0.522;2022-09-09T09:27:31;51.80;;;16.80;;
68910;SDS011;55953;51.650;-0.522;2022-09-09T09:30:29;52.40;;;17.90;;
68910;SDS011;55953;51.650;-0.522;2022-09-09T09:33:11;45.60;;;15.60;;
68910;SDS011;55953;51.650;-0.522;2022-09-09T09:35:43;45.70;;;15.70;;
68910;SDS011;55953;51.650;-0.522;2022-09-09T09:38:19;47.00;;;14.80;;
68910;SDS011;55953;51.650;-0.522;2022-09-09T09:41:12;43.00;;;14.50;;
68910;SDS011;55953;51.650;-0.522;2022-09-09T09:43:41;44.30;;;14.80;;
68910;SDS011;55953;51.650;-0.522;2022-09-09T09:46:21;47.30;;;15.10;;
68910;SDS011;55953;51.650;-0.522;2022-09-09T09:49:05;49.20;;;15.10;;
68910;SDS011;55953;51.650;-0.522;2022-09-09T09:51:37;45.00;;;14.80;;
68910;SDS011;55953;51.650;-0.522;2022-09-09T09:56:41;41.40;;;13.50;;
68910;SDS011;55953;51.650;-0.522;2022-09-09T09:59:34;44.50;;;14.20;;
68910;SDS011;55953;51.650;-0.522;2022-09-09T10:02:18;38.60;;;13.10;;
68910;SDS011;55953;51.650;-0.522;2022-09-09T10:07:45;37.90;;;12.90;;
68910;SDS011;55953;51.650;-0.522;2022-09-09T10:10:31;39.50;;;13.60;;
68910;SDS011;55953;51.650;-0.522;2022-09-09T10:13:20;35.70;;;13.60;;
68910;SDS011;55953;51.650;-0.522;2022-09-09T10:16:25;37.30;;;13.90;;
68910;SDS011;55953;51.650;-0.522;2022-09-09T10:19:35;42.80;;;15.70;;
68910;SDS011;55953;51.650;-0.522;2022-09-09T10:28:12;39.20;;;15.30;;
68910;SDS011;55953;51.650;-0.522;2022-09-09T10:34:06;40.90;;;14.70;;
68910;SDS011;55953;51.650;-0.522;2022-09-09T10:36:48;36.60;;;14.20;;
68910;SDS011;55953;51.650;-0.522;2022-09-09T10:39:39;36.00;;;14.90;;
68910;SDS011;55953;51.650;-0.522;2022-09-09T10:42:12;37.80;;;14.40;;
68910;SDS011;55953;51.650;-0.522;2022-09-09T10:44:58;36.10;;;13.90;;
68910;SDS011;55953;51.650;-0.522;2022-09-09T10:50:42;32.70;;;13.80;;
68910;SDS011;55953;51.650;-0.522;2022-09-09T10:56:18;34.00;;;13.80;;
68910;SDS011;55953;51.650;-0.522;2022-09-09T10:58:53;27.80;;;12.30;;
68910;SDS011;55953;51.650;-0.522;2022-09-09T11:01:37;27.70;;;12.30;;
68910;SDS011;55953;51.650;-0.522;2022-09-09T11:07:04;28.20;;;11.90;;
68910;SDS011;55953;51.650;-0.522;2022-09-09T11:09:43;26.70;;;11.00;;
68910;SDS011;55953;51.650;-0.522;2022-09-09T11:12:19;27.20;;;11.20;;
68910;SDS011;55953;51.650;-0.522;2022-09-09T11:14:56;25.10;;;10.90;;
68910;SDS011;55953;51.650;-0.522;2022-09-09T11:17:42;25.80;;;11.20;;
68910;SDS011;55953;51.650;-0.522;2022-09-09T11:20:14;26.90;;;11.60;;
68910;SDS011;55953;51.650;-0.522;2022-09-09T11:22:49;26.10;;;10.50;;
68910;SDS011;55953;51.650;-0.522;2022-09-09T11:25:32;22.30;;;10.00;;
68910;SDS011;55953;51.650;-0.522;2022-09-09T11:34:19;27.50;;;10.50;;
68910;SDS011;55953;51.650;-0.522;2022-09-09T11:37:11;26.30;;;10.40;;
68910;SDS011;55953;51.650;-0.522;2022-09-09T11:42:49;24.30;;;10.70;;
68910;SDS011;55953;51.650;-0.522;2022-09-09T11:45:28;22.00;;;10.10;;
68910;SDS011;55953;51.650;-0.522;2022-09-09T11:48:00;23.50;;;10.70;;
68910;SDS011;55953;51.650;-0.522;2022-09-09T11:53:06;22.90;;;10.50;;
68910;SDS011;55953;51.650;-0.522;2022-09-09T11:56:11;24.40;;;10.20;;
68910;SDS011;55953;51.650;-0.522;2022-09-09T11:58:57;30.80;;;11.80;;
68910;SDS011;55953;51.650;-0.522;2022-09-09T12:01:30;31.90;;;13.20;;
68910;SDS011;55953;51.650;-0.522;2022-09-09T12:07:23;28.70;;;10.50;;
68910;SDS011;55953;51.650;-0.522;2022-09-09T12:10:03;29.50;;;9.40;;
68910;SDS011;55953;51.650;-0.522;2022-09-09T12:12:49;21.70;;;10.00;;
68910;SDS011;55953;51.650;-0.522;2022-09-09T12:15:24;26.20;;;10.10;;
68910;SDS011;55953;51.650;-0.522;2022-09-09T12:17:58;22.10;;;9.30;;
68910;SDS011;55953;51.650;-0.522;2022-09-09T12:32:27;17.00;;;7.60;;
68910;SDS011;55953;51.650;-0.522;2022-09-09T12:35:10;17.20;;;6.80;;
68910;SDS011;55953;51.650;-0.522;2022-09-09T12:37:45;16.30;;;6.00;;
68910;SDS011;55953;51.650;-0.522;2022-09-09T12:40:32;17.20;;;5.90;;
68910;SDS011;55953;51.650;-0.522;2022-09-09T12:43:20;12.40;;;5.10;;
68910;SDS011;55953;51.650;-0.522;2022-09-09T12:45:51;13.60;;;5.10;;
68910;SDS011;55953;51.650;-0.522;2022-09-09T12:48:33;11.60;;;4.80;;
68910;SDS011;55953;51.650;-0.522;2022-09-09T12:51:16;12.90;;;5.60;;
68910;SDS011;55953;51.650;-0.522;2022-09-09T12:53:48;12.60;;;5.70;;
68910;SDS011;55953;51.650;-0.522;2022-09-09T12:56:20;15.80;;;6.10;;
68910;SDS011;55953;51.650;-0.522;2022-09-09T12:58:51;14.40;;;6.30;;
68910;SDS011;55953;51.650;-0.522;2022-09-09T13:01:22;13.50;;;6.20;;
68910;SDS011;55953;51.650;-0.522;2022-09-09T13:03:56;17.80;;;6.30;;
68910;SDS011;55953;51.650;-0.522;2022-09-09T13:06:31;14.00;;;5.90;;
68910;SDS011;55953;51.650;-0.522;2022-09-09T13:09:01;11.80;;;5.40;;
68910;SDS011;55953;51.650;-0.522;2022-09-09T13:11:39;12.60;;;5.20;;
68910;SDS011;55953;51.650;-0.522;2022-09-09T13:14:19;10.90;;;4.90;;
68910;SDS011;55953;51.650;-0.522;2022-09-09T13:17:01;11.50;;;5.40;;
68910;SDS011;55953;51.650;-0.522;2022-09-09T13:19:37;13.00;;;5.70;;
68910;SDS011;55953;51.650;-0.522;2022-09-09T13:25:05;15.00;;;5.70;;
68910;SDS011;55953;51.650;-0.522;2022-09-09T13:27:59;13.00;;;5.00;;
68910;SDS011;55953;51.650;-0.522;2022-09-09T13:30:30;10.00;;;5.30;;
68910;SDS011;55953;51.650;-0.522;2022-09-09T13:33:52;16.50;;;6.40;;
68910;SDS011;55953;51.650;-0.522;2022-09-09T13:36:05;11.00;;;5.20;;
68910;SDS011;55953;51.650;-0.522;2022-09-09T13:38:53;13.70;;;5.20;;
68910;SDS011;55953;51.650;-0.522;2022-09-09T13:41:25;15.70;;;5.50;;
68910;SDS011;55953;51.650;-0.522;2022-09-09T13:43:58;15.20;;;5.40;;
68910;SDS011;55953;51.650;-0.522;2022-09-09T13:46:38;12.70;;;4.70;;
68910;SDS011;55953;51.650;-0.522;2022-09-09T13:56:40;11.40;;;4.90;;
68910;SDS011;55953;51.650;-0.522;2022-09-09T13:59:14;12.30;;;4.40;;
68910;SDS011;55953;51.650;-0.522;2022-09-09T14:01:44;12.80;;;4.50;;
68910;SDS011;55953;51.650;-0.522;2022-09-09T14:04:12;8.20;;;4.50;;
68910;SDS011;55953;51.650;-0.522;2022-09-09T14:06:40;12.40;;;4.40;;
68910;SDS011;55953;51.650;-0.522;2022-09-09T14:09:12;9.80;;;4.40;;
68910;SDS011;55953;51.650;-0.522;2022-09-09T14:11:44;12.60;;;4.30;;
68910;SDS011;55953;51.650;-0.522;2022-09-09T14:14:15;15.20;;;4.70;;
68910;SDS011;55953;51.650;-0.522;2022-09-09T14:16:43;9.40;;;4.90;;
68910;SDS011;55953;51.650;-0.522;2022-09-09T14:19:11;10.40;;;5.00;;
68910;SDS011;55953;51.650;-0.522;2022-09-09T14:21:39;12.60;;;4.50;;
68910;SDS011;55953;51.650;-0.522;2022-09-09T14:24:07;11.20;;;4.50;;
68910;SDS011;55953;51.650;-0.522;2022-09-09T14:26:35;12.40;;;4.90;;
68910;SDS011;55953;51.650;-0.522;2022-09-09T14:29:02;11.30;;;4.80;;
68910;SDS011;55953;51.650;-0.522;2022-09-09T14:31:30;10.10;;;5.20;;
68910;SDS011;55953;51.650;-0.522;2022-09-09T14:33:58;7.90;;;3.90;;
68910;SDS011;55953;51.650;-0.522;2022-09-09T14:36:26;8.10;;;4.40;;
68910;SDS011;55953;51.650;-0.522;2022-09-09T14:38:54;9.60;;;4.60;;
68910;SDS011;55953;51.650;-0.522;2022-09-09T14:41:21;12.70;;;4.70;;
68910;SDS011;55953;51.650;-0.522;2022-09-09T14:43:49;13.10;;;5.20;;
68910;SDS011;55953;51.650;-0.522;2022-09-09T14:46:19;9.50;;;4.80;;
68910;SDS011;55953;51.650;-0.522;2022-09-09T14:48:47;13.10;;;5.00;;
68910;SDS011;55953;51.650;-0.522;2022-09-09T14:53:58;12.00;;;5.00;;
68910;SDS011;55953;51.650;-0.522;2022-09-09T14:56:29;11.80;;;5.40;;
68910;SDS011;55953;51.650;-0.522;2022-09-09T14:58:59;16.20;;;5.20;;
68910;SDS011;55953;51.650;-0.522;2022-09-09T15:01:29;18.10;;;5.80;;
68910;SDS011;55953;51.650;-0.522;2022-09-09T15:04:00;13.40;;;5.50;;
68910;SDS011;55953;51.650;-0.522;2022-09-09T15:06:32;14.80;;;5.80;;
68910;SDS011;55953;51.650;-0.522;2022-09-09T15:09:01;17.30;;;6.00;;
68910;SDS011;55953;51.650;-0.522;2022-09-09T15:11:32;12.70;;;5.10;;
68910;SDS011;55953;51.650;-0.522;2022-09-09T15:14:06;13.90;;;5.20;;
68910;SDS011;55953;51.650;-0.522;2022-09-09T15:16:35;12.00;;;5.60;;
68910;SDS011;55953;51.650;-0.522;2022-09-09T15:19:04;15.10;;;5.60;;
68910;SDS011;55953;51.650;-0.522;2022-09-09T15:21:33;13.50;;;5.50;;
68910;SDS011;55953;51.650;-0.522;2022-09-09T15:24:03;12.30;;;6.10;;
68910;SDS011;55953;51.650;-0.522;2022-09-09T15:26:31;11.70;;;6.30;;
68910;SDS011;55953;51.650;-0.522;2022-09-09T15:28:59;16.10;;;5.80;;
68910;SDS011;55953;51.650;-0.522;2022-09-09T15:31:29;13.70;;;6.40;;
68910;SDS011;55953;51.650;-0.522;2022-09-09T15:34:05;12.50;;;6.10;;
68910;SDS011;55953;51.650;-0.522;2022-09-09T15:36:36;16.00;;;6.00;;
68910;SDS011;55953;51.650;-0.522;2022-09-09T15:39:09;16.90;;;5.70;;
68910;SDS011;55953;51.650;-0.522;2022-09-09T15:41:45;15.90;;;6.00;;
68910;SDS011;55953;51.650;-0.522;2022-09-09T15:44:15;14.70;;;6.80;;
68910;SDS011;55953;51.650;-0.522;2022-09-09T15:46:45;17.60;;;6.70;;
68910;SDS011;55953;51.650;-0.522;2022-09-09T15:49:23;16.60;;;6.20;;
68910;SDS011;55953;51.650;-0.522;2022-09-09T15:51:55;14.90;;;6.00;;
68910;SDS011;55953;51.650;-0.522;2022-09-09T15:54:25;10.40;;;5.70;;
68910;SDS011;55953;51.650;-0.522;2022-09-09T15:56:59;12.20;;;6.30;;
68910;SDS011;55953;51.650;-0.522;2022-09-09T15:59:29;15.70;;;6.70;;
68910;SDS011;55953;51.650;-0.522;2022-09-09T16:01:58;19.10;;;6.90;;
68910;SDS011;55953;51.650;-0.522;2022-09-09T16:04:30;16.10;;;6.70;;
68910;SDS011;55953;51.650;-0.522;2022-09-09T16:07:01;10.60;;;5.70;;
68910;SDS011;55953;51.650;-0.522;2022-09-09T16:09:31;14.80;;;6.40;;
68910;SDS011;55953;51.650;-0.522;2022-09-09T16:12:00;10.40;;;5.50;;
68910;SDS011;55953;51.650;-0.522;2022-09-09T16:14:29;16.00;;;5.80;;
68910;SDS011;55953;51.650;-0.522;2022-09-09T16:17:05;12.70;;;5.70;;
68910;SDS011;55953;51.650;-0.522;2022-09-09T16:19:34;13.40;;;5.90;;
68910;SDS011;55953;51.650;-0.522;2022-09-09T16:22:02;17.70;;;5.60;;
68910;SDS011;55953;51.650;-0.522;2022-09-09T16:24:31;12.40;;;5.00;;
68910;SDS011;55953;51.650;-0.522;2022-09-09T16:26:59;14.90;;;5.70;;
68910;SDS011;55953;51.650;-0.522;2022-09-09T16:29:26;12.10;;;5.10;;
68910;SDS011;55953;51.650;-0.522;2022-09-09T16:31:55;11.60;;;4.80;;
68910;SDS011;55953;51.650;-0.522;2022-09-09T16:34:27;11.70;;;5.60;;
68910;SDS011;55953;51.650;-0.522;2022-09-09T16:36:55;15.40;;;5.20;;
68910;SDS011;55953;51.650;-0.522;2022-09-09T16:39:23;15.40;;;5.90;;
68910;SDS011;55953;51.650;-0.522;2022-09-09T16:41:51;11.10;;;5.50;;
68910;SDS011;55953;51.650;-0.522;2022-09-09T16:44:19;16.70;;;5.60;;
68910;SDS011;55953;51.650;-0.522;2022-09-09T16:46:48;9.30;;;5.30;;
68910;SDS011;55953;51.650;-0.522;2022-09-09T16:49:26;11.60;;;5.00;;
68910;SDS011;55953;51.650;-0.522;2022-09-09T16:51:58;10.80;;;5.20;;
68910;SDS011;55953;51.650;-0.522;2022-09-09T16:54:26;14.30;;;5.60;;
68910;SDS011;55953;51.650;-0.522;2022-09-09T16:56:54;9.70;;;5.50;;
68910;SDS011;55953;51.650;-0.522;2022-09-09T16:59:22;13.10;;;5.60;;
68910;SDS011;55953;51.650;-0.522;2022-09-09T17:01:51;12.00;;;6.00;;
68910;SDS011;55953;51.650;-0.522;2022-09-09T17:04:25;10.10;;;5.90;;
68910;SDS011;55953;51.650;-0.522;2022-09-09T17:06:55;12.50;;;5.80;;
68910;SDS011;55953;51.650;-0.522;2022-09-09T17:09:25;10.80;;;4.90;;
68910;SDS011;55953;51.650;-0.522;2022-09-09T17:11:57;11.70;;;4.70;;